Time;durP1;ratioP1;P1;durP2;ratioP2;P2;SDS_P1;SDS_P2;PMS_P1;PMS_P2;Temp;Humidity;BMP_temperature;BMP_pressure;BME280_temperature;BME280_humidity;BME280_pressure;Samples;Min_cycle;Max_cycle;Signal;HPM_P1;HPM_P2
2022/03/17 00:01:19;;;;;;;0.00;0.00;;;;;18.40;100603.00;;;;5081887;28;20083;-77
2022/03/17 00:03:48;;;;;;;0.00;0.00;;;;;18.30;100619.00;;;;5065279;28;20075;-77
2022/03/17 00:06:18;;;;;;;0.00;0.00;;;;;18.30;100609.00;;;;5068737;28;20059;-78
2022/03/17 00:08:48;;;;;;;0.00;0.00;;;;;18.20;100621.00;;;;5085352;28;20075;-77
2022/03/17 00:11:18;;;;;;;0.00;0.00;;;;;18.10;100623.00;;;;5051642;28;20048;-77
2022/03/17 00:13:48;;;;;;;0.00;0.00;;;;;18.10;100619.00;;;;5067933;28;20133;-77
2022/03/17 00:16:17;;;;;;;0.00;0.00;;;;;18.00;100606.00;;;;5084456;28;20147;-76
2022/03/17 00:18:47;;;;;;;0.00;0.00;;;;;18.00;100628.00;;;;5084721;28;20084;-76
2022/03/17 00:21:22;;;;;;;0.00;0.00;;;;;18.10;100608.00;;;;5069237;28;20051;-77
2022/03/17 00:23:51;;;;;;;0.00;0.00;;;;;18.10;100627.00;;;;5068642;28;20048;-78
2022/03/17 00:26:22;;;;;;;0.00;0.00;;;;;18.10;100640.00;;;;5084669;28;20057;-77
2022/03/17 00:28:52;;;;;;;0.00;0.00;;;;;18.10;100621.00;;;;5069007;28;20049;-75
2022/03/17 00:31:22;;;;;;;0.00;0.00;;;;;18.20;100634.00;;;;5069477;28;20462;-76
2022/03/17 00:33:51;;;;;;;0.00;0.00;;;;;18.50;100614.00;;;;5069780;28;20170;-76
2022/03/17 00:36:21;;;;;;;0.00;0.00;;;;;18.60;100632.00;;;;5091707;27;20052;-77
2022/03/17 00:38:51;;;;;;;0.00;0.00;;;;;18.60;100634.00;;;;5125539;27;20036;-78
2022/03/17 00:41:20;;;;;;;0.00;0.00;;;;;18.60;100620.00;;;;5109476;28;20093;-76
2022/03/17 00:43:49;;;;;;;0.00;0.00;;;;;18.60;100622.00;;;;5107589;28;20044;-78
2022/03/17 00:46:20;;;;;;;0.00;0.00;;;;;18.70;100608.00;;;;5109225;28;20067;-76
2022/03/17 00:48:49;;;;;;;0.00;0.00;;;;;18.60;100625.00;;;;5109329;28;20040;-76
2022/03/17 00:51:19;;;;;;;0.00;0.00;;;;;18.60;100617.00;;;;5108179;28;20051;-76
2022/03/17 00:53:49;;;;;;;0.00;0.00;;;;;18.70;100611.00;;;;5109660;28;20067;-77
2022/03/17 00:56:18;;;;;;;0.00;0.00;;;;;18.80;100586.00;;;;5109803;27;20698;-77
2022/03/17 00:58:48;;;;;;;0.00;0.00;;;;;18.90;100598.00;;;;5108912;28;20047;-77
2022/03/17 01:01:19;;;;;;;0.00;0.00;;;;;19.00;100593.00;;;;5109831;28;20055;-76
2022/03/17 01:03:49;;;;;;;0.00;0.00;;;;;18.90;100605.00;;;;5109595;28;20126;-76
2022/03/17 01:06:19;;;;;;;0.00;0.00;;;;;18.80;100592.00;;;;5090855;28;20171;-76
2022/03/17 01:08:48;;;;;;;0.00;0.00;;;;;18.60;100603.00;;;;5108844;28;20044;-76
2022/03/17 01:11:18;;;;;;;0.00;0.00;;;;;18.60;100586.00;;;;5107288;28;20483;-75
2022/03/17 01:13:47;;;;;;;0.00;0.00;;;;;18.60;100586.00;;;;5124568;27;20258;-75
2022/03/17 01:16:17;;;;;;;0.00;0.00;;;;;18.70;100599.00;;;;5106729;28;20047;-78
2022/03/17 01:18:46;;;;;;;0.00;0.00;;;;;18.80;100569.00;;;;5125369;27;20510;-77
2022/03/17 01:21:17;;;;;;;0.00;0.00;;;;;18.90;100571.00;;;;5122734;27;20137;-77
2022/03/17 01:23:46;;;;;;;0.00;0.00;;;;;18.80;100593.00;;;;5107417;28;20142;-79
2022/03/17 01:26:16;;;;;;;0.00;0.00;;;;;18.70;100581.00;;;;5107944;28;20043;-78
2022/03/17 01:28:45;;;;;;;0.00;0.00;;;;;18.70;100582.00;;;;5107264;28;20400;-77
2022/03/17 01:31:15;;;;;;;0.00;0.00;;;;;18.70;100573.00;;;;5108290;28;20051;-78
2022/03/17 01:33:45;;;;;;;0.00;0.00;;;;;18.50;100561.00;;;;5107500;28;20044;-77
2022/03/17 01:36:14;;;;;;;0.00;0.00;;;;;18.50;100568.00;;;;5124290;27;20071;-78
2022/03/17 01:38:44;;;;;;;0.00;0.00;;;;;18.40;100561.00;;;;5107992;27;20589;-77
2022/03/17 01:41:14;;;;;;;0.00;0.00;;;;;18.20;100570.00;;;;5109087;28;20546;-77
2022/03/17 01:43:43;;;;;;;0.00;0.00;;;;;18.00;100573.00;;;;5091289;28;20058;-78
2022/03/17 01:46:15;;;;;;;0.30;0.30;;;;;17.80;100553.00;;;;5107127;28;20073;-77
2022/03/17 01:48:45;;;;;;;0.00;0.00;;;;;17.70;100588.00;;;;5108780;28;20036;-77
2022/03/17 01:51:15;;;;;;;0.00;0.00;;;;;17.60;100567.00;;;;5108720;28;20138;-77
2022/03/17 01:53:45;;;;;;;0.00;0.00;;;;;17.50;100566.00;;;;5107162;28;20047;-77
2022/03/17 01:56:17;;;;;;;0.00;0.00;;;;;17.40;100552.00;;;;5107379;28;20049;-78
2022/03/17 01:58:47;;;;;;;0.08;0.08;;;;;17.40;100567.00;;;;5107176;28;20088;-78
2022/03/17 02:01:17;;;;;;;0.03;0.03;;;;;17.40;100570.00;;;;5107379;28;20071;-81
2022/03/17 02:03:47;;;;;;;0.00;0.00;;;;;17.40;100533.00;;;;5123787;27;20058;-77
2022/03/17 02:06:17;;;;;;;0.00;0.00;;;;;17.30;100553.00;;;;5108246;28;20408;-77
2022/03/17 02:08:46;;;;;;;0.00;0.00;;;;;17.20;100561.00;;;;5107030;28;20528;-77
2022/03/17 02:14:05;;;;;;;0.00;0.00;;;;;17.20;100561.00;;;;5108324;28;20570;-77
2022/03/17 02:16:35;;;;;;;0.00;0.00;;;;;17.20;100566.00;;;;5106684;28;20589;-77
2022/03/17 02:19:06;;;;;;;0.00;0.00;;;;;17.20;100574.00;;;;5123308;27;20051;-78
2022/03/17 02:21:37;;;;;;;0.10;0.10;;;;;17.10;100555.00;;;;5108001;28;20396;-77
2022/03/17 02:26:57;;;;;;;0.00;0.00;;;;;17.00;100550.00;;;;5123624;27;19924;-77
2022/03/17 02:29:27;;;;;;;0.00;0.00;;;;;17.00;100546.00;;;;5106545;28;20039;-77
2022/03/17 02:31:58;;;;;;;0.00;0.00;;;;;17.00;100562.00;;;;5107646;28;20055;-77
2022/03/17 02:34:29;;;;;;;;;;;;;16.90;100576.00;;;;5106993;28;20055;-77
2022/03/17 02:37:00;;;;;;;0.00;0.00;;;;;16.90;100566.00;;;;5107615;28;19923;-77
2022/03/17 02:39:30;;;;;;;0.10;0.10;;;;;16.90;100562.00;;;;5106340;28;20057;-78
2022/03/17 02:42:00;;;;;;;0.08;0.00;;;;;16.80;100574.00;;;;5106222;28;20058;-78
2022/03/17 02:44:29;;;;;;;0.00;0.00;;;;;16.80;100552.00;;;;5106169;28;20062;-77
2022/03/17 02:46:59;;;;;;;0.00;0.00;;;;;16.80;100554.00;;;;5107576;28;20032;-77
2022/03/17 02:49:29;;;;;;;0.00;0.00;;;;;16.70;100536.00;;;;5127885;27;20053;-77
2022/03/17 02:51:58;;;;;;;0.00;0.00;;;;;16.70;100547.00;;;;5112176;28;20047;-77
2022/03/17 02:54:32;;;;;;;0.00;0.00;;;;;16.80;100540.00;;;;5110366;28;20043;-77
2022/03/17 02:57:01;;;;;;;0.00;0.00;;;;;16.90;100555.00;;;;5129312;27;20071;-77
2022/03/17 02:59:31;;;;;;;0.00;0.00;;;;;17.00;100512.00;;;;5110475;28;20050;-77
2022/03/17 03:02:04;;;;;;;0.00;0.00;;;;;17.50;100513.00;;;;5135557;27;20035;-77
2022/03/17 03:04:34;;;;;;;0.00;0.00;;;;;17.60;100532.00;;;;5109006;28;20047;-77
2022/03/17 03:07:06;;;;;;;0.00;0.00;;;;;17.90;100520.00;;;;5123534;27;20046;-77
2022/03/17 03:09:36;;;;;;;0.00;0.00;;;;;17.80;100510.00;;;;5107558;28;20039;-77
2022/03/17 03:12:06;;;;;;;0.00;0.00;;;;;17.80;100524.00;;;;5106640;28;20044;-77
2022/03/17 03:14:36;;;;;;;0.00;0.00;;;;;17.60;100517.00;;;;5123939;27;20071;-77
2022/03/17 03:17:06;;;;;;;0.00;0.00;;;;;17.40;100512.00;;;;5106185;28;20054;-77
2022/03/17 03:19:37;;;;;;;0.00;0.00;;;;;17.30;100515.00;;;;5123953;27;20483;-78
2022/03/17 03:22:06;;;;;;;0.00;0.00;;;;;17.20;100515.00;;;;5106946;28;20040;-78
2022/03/17 03:24:38;;;;;;;0.00;0.00;;;;;17.10;100502.00;;;;5107758;28;20037;-77
2022/03/17 03:27:08;;;;;;;0.00;0.00;;;;;17.10;100525.00;;;;5106140;28;20043;-78
2022/03/17 03:29:38;;;;;;;0.00;0.00;;;;;17.20;100500.00;;;;5122933;27;20514;-77
2022/03/17 03:32:08;;;;;;;0.00;0.00;;;;;17.30;100508.00;;;;5106040;28;20144;-78
2022/03/17 03:34:37;;;;;;;0.00;0.00;;;;;17.30;100490.00;;;;5107087;28;20066;-78
2022/03/17 03:37:25;;;;;;;0.00;0.00;;;;;17.30;100494.00;;;;5106972;28;20044;-78
2022/03/17 03:39:57;;;;;;;0.00;0.00;;;;;17.40;100492.00;;;;5106281;28;20044;-78
2022/03/17 03:42:27;;;;;;;0.00;0.00;;;;;17.30;100489.00;;;;5108003;28;20050;-77
2022/03/17 03:44:57;;;;;;;0.00;0.00;;;;;17.40;100483.00;;;;5105173;28;20051;-78
2022/03/17 03:47:27;;;;;;;0.00;0.00;;;;;17.60;100484.00;;;;5107203;28;20502;-77
2022/03/17 03:49:56;;;;;;;0.00;0.00;;;;;17.60;100469.00;;;;5106743;28;20039;-77
2022/03/17 03:52:25;;;;;;;0.00;0.00;;;;;17.50;100486.00;;;;5105359;28;20700;-77
2022/03/17 03:54:55;;;;;;;0.00;0.00;;;;;17.60;100484.00;;;;5122320;28;20051;-77
2022/03/17 03:57:24;;;;;;;0.00;0.00;;;;;17.50;100487.00;;;;5104613;28;20515;-78
2022/03/17 03:59:53;;;;;;;0.00;0.00;;;;;17.40;100459.00;;;;5106838;28;20043;-77
2022/03/17 04:02:23;;;;;;;0.00;0.00;;;;;17.20;100468.00;;;;5122296;28;20130;-77
2022/03/17 04:04:52;;;;;;;0.00;0.00;;;;;17.20;100462.00;;;;5089302;28;20052;-77
2022/03/17 04:07:22;;;;;;;0.00;0.00;;;;;17.00;100482.00;;;;5105615;28;20065;-77
2022/03/17 04:09:52;;;;;;;0.00;0.00;;;;;16.80;100469.00;;;;5106910;28;20167;-77
2022/03/17 04:12:22;;;;;;;0.00;0.00;;;;;16.60;100439.00;;;;5105412;28;20048;-77
2022/03/17 04:14:51;;;;;;;0.10;0.03;;;;;16.50;100439.00;;;;5106762;28;20475;-77
2022/03/17 04:17:21;;;;;;;0.00;0.00;;;;;16.40;100459.00;;;;5104951;28;20052;-77
2022/03/17 04:19:50;;;;;;;0.00;0.00;;;;;16.40;100430.00;;;;5122164;28;20545;-78
2022/03/17 04:22:19;;;;;;;0.00;0.00;;;;;16.30;100431.00;;;;5104586;28;20741;-78
2022/03/17 04:24:49;;;;;;;0.00;0.00;;;;;16.30;100418.00;;;;5106511;28;20043;-77
2022/03/17 04:27:18;;;;;;;0.00;0.00;;;;;16.30;100441.00;;;;5105316;28;20051;-78
2022/03/17 04:29:47;;;;;;;0.08;0.08;;;;;16.30;100444.00;;;;5122635;28;20054;-78
2022/03/17 04:32:17;;;;;;;0.00;0.00;;;;;16.40;100449.00;;;;5106745;28;20064;-78
2022/03/17 04:34:46;;;;;;;0.00;0.00;;;;;16.50;100422.00;;;;5106357;28;20052;-77
2022/03/17 04:37:16;;;;;;;0.00;0.00;;;;;16.60;100437.00;;;;5106221;28;20040;-77
2022/03/17 04:39:45;;;;;;;0.00;0.00;;;;;16.70;100433.00;;;;5122220;28;20437;-77
2022/03/17 04:42:14;;;;;;;0.00;0.00;;;;;16.70;100426.00;;;;5088472;28;20048;-77
2022/03/17 04:44:44;;;;;;;0.00;0.00;;;;;16.60;100423.00;;;;5105334;28;20051;-77
2022/03/17 04:47:13;;;;;;;0.00;0.00;;;;;16.50;100403.00;;;;5104973;28;20051;-77
2022/03/17 04:49:43;;;;;;;0.00;0.00;;;;;16.40;100414.00;;;;5122474;28;20054;-78
2022/03/17 04:55:00;;;;;;;0.00;0.00;;;;;16.20;100411.00;;;;5110347;28;20690;-77
2022/03/17 04:57:29;;;;;;;0.00;0.00;;;;;16.10;100408.00;;;;5109032;28;20047;-77
2022/03/17 04:59:59;;;;;;;0.00;0.00;;;;;16.10;100412.00;;;;5108539;28;20507;-77
2022/03/17 05:02:28;;;;;;;0.00;0.00;;;;;16.10;100398.00;;;;5125691;27;20061;-77
2022/03/17 05:04:58;;;;;;;0.00;0.00;;;;;16.00;100407.00;;;;5125251;27;20059;-77
2022/03/17 05:07:28;;;;;;;0.00;0.00;;;;;16.00;100406.00;;;;5109172;28;20075;-77
2022/03/17 05:09:57;;;;;;;0.00;0.00;;;;;16.00;100391.00;;;;5109852;28;20043;-77
2022/03/17 05:12:27;;;;;;;0.00;0.00;;;;;15.90;100369.00;;;;5107374;28;20058;-77
2022/03/17 05:14:56;;;;;;;0.00;0.00;;;;;15.90;100390.00;;;;5110479;28;20055;-77
2022/03/17 05:17:26;;;;;;;0.00;0.00;;;;;15.80;100380.00;;;;5108350;28;20112;-77
2022/03/17 05:19:55;;;;;;;0.00;0.00;;;;;15.70;100373.00;;;;5124774;27;20434;-77
2022/03/17 05:22:25;;;;;;;0.00;0.00;;;;;15.70;100364.00;;;;5109729;28;20127;-77
2022/03/17 05:24:55;;;;;;;0.00;0.00;;;;;15.70;100356.00;;;;5107190;28;20056;-77
2022/03/17 05:27:25;;;;;;;0.00;0.00;;;;;15.60;100360.00;;;;5108289;28;20055;-77
2022/03/17 05:29:54;;;;;;;0.05;0.05;;;;;15.60;100362.00;;;;5107752;28;21118;-77
2022/03/17 05:32:24;;;;;;;0.00;0.00;;;;;15.60;100359.00;;;;5107913;27;20529;-76
2022/03/17 05:34:53;;;;;;;0.00;0.00;;;;;15.50;100354.00;;;;5124538;27;20054;-77
2022/03/17 05:37:23;;;;;;;0.00;0.00;;;;;15.50;100359.00;;;;5109184;28;20050;-77
2022/03/17 05:39:53;;;;;;;0.00;0.00;;;;;15.50;100362.00;;;;5108212;28;20043;-77
2022/03/17 05:42:22;;;;;;;0.00;0.00;;;;;15.40;100361.00;;;;5107345;28;20178;-76
2022/03/17 05:44:51;;;;;;;0.00;0.00;;;;;15.40;100356.00;;;;5107549;28;20047;-77
2022/03/17 05:47:21;;;;;;;0.00;0.00;;;;;15.30;100331.00;;;;5108260;28;20048;-77
2022/03/17 05:49:51;;;;;;;0.00;0.00;;;;;15.40;100340.00;;;;5108533;28;20071;-77
2022/03/17 05:52:20;;;;;;;0.00;0.00;;;;;15.40;100323.00;;;;5123851;27;20047;-77
2022/03/17 05:54:49;;;;;;;0.00;0.00;;;;;15.40;100325.00;;;;5107947;28;20040;-77
2022/03/17 05:57:19;;;;;;;0.00;0.00;;;;;15.40;100325.00;;;;5108833;28;20061;-77
2022/03/17 05:59:48;;;;;;;0.00;0.00;;;;;15.30;100317.00;;;;5108487;28;20047;-77
2022/03/17 06:02:18;;;;;;;0.00;0.00;;;;;15.20;100302.00;;;;5107542;28;20838;-76
2022/03/17 06:04:47;;;;;;;0.00;0.00;;;;;15.20;100298.00;;;;5109522;28;20054;-77
2022/03/17 06:07:16;;;;;;;0.00;0.00;;;;;15.10;100312.00;;;;5108328;28;20051;-77
2022/03/17 06:09:46;;;;;;;0.00;0.00;;;;;15.00;100313.00;;;;5106950;28;20047;-77
2022/03/17 06:12:15;;;;;;;0.00;0.00;;;;;15.00;100295.00;;;;5108168;28;20762;-77
2022/03/17 06:14:45;;;;;;;0.00;0.00;;;;;15.00;100311.00;;;;5107901;28;20036;-77
2022/03/17 06:17:15;;;;;;;0.00;0.00;;;;;15.00;100311.00;;;;5106576;28;20506;-77
2022/03/17 06:19:44;;;;;;;0.00;0.00;;;;;15.00;100298.00;;;;5124019;27;20046;-77
2022/03/17 06:22:13;;;;;;;0.00;0.00;;;;;14.90;100291.00;;;;5124082;27;20433;-78
2022/03/17 06:24:43;;;;;;;0.00;0.00;;;;;14.90;100285.00;;;;5123809;27;20047;-77
2022/03/17 06:27:12;;;;;;;0.00;0.00;;;;;15.00;100302.00;;;;5123570;27;20043;-77
2022/03/17 06:29:41;;;;;;;0.00;0.00;;;;;15.00;100305.00;;;;5107106;28;20050;-77
2022/03/17 06:32:14;;;;;;;0.00;0.00;;;;;15.00;100293.00;;;;5090399;28;20048;-77
2022/03/17 06:34:43;;;;;;;0.00;0.00;;;;;15.00;100289.00;;;;5106154;28;20062;-77
2022/03/17 06:37:13;;;;;;;0.00;0.00;;;;;15.00;100283.00;;;;5107498;28;20109;-77
2022/03/17 06:39:42;;;;;;;0.00;0.00;;;;;15.00;100264.00;;;;5123194;27;20139;-77
2022/03/17 06:42:11;;;;;;;0.00;0.00;;;;;15.00;100278.00;;;;5106539;28;20044;-76
2022/03/17 06:44:41;;;;;;;0.00;0.00;;;;;14.90;100272.00;;;;5123323;27;20050;-77
2022/03/17 06:47:10;;;;;;;0.00;0.00;;;;;14.90;100283.00;;;;5123644;27;20051;-77
2022/03/17 06:49:40;;;;;;;0.00;0.00;;;;;14.90;100272.00;;;;5107054;28;20051;-77
2022/03/17 06:52:09;;;;;;;0.00;0.00;;;;;14.90;100272.00;;;;5123117;27;20422;-77
2022/03/17 06:54:38;;;;;;;0.00;0.00;;;;;14.90;100284.00;;;;5107700;28;20039;-78
2022/03/17 06:57:08;;;;;;;0.00;0.00;;;;;14.90;100268.00;;;;5106192;28;20590;-77
2022/03/17 06:59:37;;;;;;;0.00;0.00;;;;;14.90;100266.00;;;;5122765;27;20047;-77
2022/03/17 07:02:06;;;;;;;0.00;0.00;;;;;14.90;100272.00;;;;5123218;27;20039;-77
2022/03/17 07:04:36;;;;;;;0.00;0.00;;;;;15.00;100267.00;;;;5123098;27;20392;-77
2022/03/17 07:07:06;;;;;;;0.00;0.00;;;;;15.00;100277.00;;;;5107053;28;20043;-78
2022/03/17 07:09:36;;;;;;;0.00;0.00;;;;;15.00;100271.00;;;;5107133;28;20499;-77
2022/03/17 07:12:06;;;;;;;0.00;0.00;;;;;14.90;100279.00;;;;5106123;28;20652;-76
2022/03/17 07:14:36;;;;;;;0.00;0.00;;;;;14.90;100272.00;;;;5107143;28;20043;-77
2022/03/17 07:17:06;;;;;;;0.00;0.00;;;;;14.80;100280.00;;;;5107376;28;20058;-78
2022/03/17 07:19:36;;;;;;;0.00;0.00;;;;;14.80;100273.00;;;;5122371;27;20050;-77
2022/03/17 07:22:07;;;;;;;0.00;0.00;;;;;14.80;100242.00;;;;5107090;28;20303;-77
2022/03/17 07:24:37;;;;;;;0.00;0.00;;;;;14.80;100263.00;;;;5107193;28;20078;-77
2022/03/17 07:27:06;;;;;;;0.00;0.00;;;;;14.90;100283.00;;;;5107296;28;20043;-77
2022/03/17 07:29:36;;;;;;;0.00;0.00;;;;;14.80;100272.00;;;;5106699;28;20047;-78
2022/03/17 07:32:06;;;;;;;0.00;0.00;;;;;14.80;100266.00;;;;5106752;28;20039;-77
2022/03/17 07:34:35;;;;;;;0.00;0.00;;;;;14.90;100245.00;;;;5122390;27;20460;-77
2022/03/17 07:37:05;;;;;;;0.00;0.00;;;;;14.90;100261.00;;;;5105808;28;20497;-77
2022/03/17 07:39:36;;;;;;;0.00;0.00;;;;;15.00;100267.00;;;;5106191;28;20051;-76
2022/03/17 07:42:05;;;;;;;0.00;0.00;;;;;14.90;100260.00;;;;5105250;28;20088;-77
2022/03/17 07:44:54;;;;;;;0.00;0.00;;;;;14.90;100255.00;;;;5105930;28;20096;-77
2022/03/17 07:47:56;;;;;;;0.00;0.00;;;;;14.80;100260.00;;;;5072028;28;20091;-77
2022/03/17 07:50:26;;;;;;;0.00;0.00;;;;;14.80;100243.00;;;;5107071;28;20558;-77
2022/03/17 07:52:56;;;;;;;0.00;0.00;;;;;14.80;100247.00;;;;5105425;28;20043;-77
2022/03/17 07:55:27;;;;;;;0.00;0.00;;;;;14.80;100262.00;;;;5106678;28;20045;-76
2022/03/17 07:57:56;;;;;;;0.00;0.00;;;;;14.80;100267.00;;;;5107226;28;20043;-77
2022/03/17 08:00:27;;;;;;;0.00;0.00;;;;;14.80;100262.00;;;;5122258;28;20430;-76
2022/03/17 08:02:59;;;;;;;0.00;0.00;;;;;14.70;100262.00;;;;5105813;28;20106;-77
2022/03/17 08:05:29;;;;;;;;;;;;;14.70;100277.00;;;;5122580;28;20039;-77
2022/03/17 08:08:02;;;;;;;0.00;0.00;;;;;14.70;100243.00;;;;5105500;28;20329;-77
2022/03/17 08:10:32;;;;;;;0.00;0.00;;;;;14.70;100265.00;;;;5122359;28;20066;-77
2022/03/17 08:13:02;;;;;;;0.00;0.00;;;;;14.70;100262.00;;;;5121913;28;20047;-77
2022/03/17 08:15:31;;;;;;;0.00;0.00;;;;;14.70;100274.00;;;;5105428;28;20071;-77
2022/03/17 08:18:00;;;;;;;0.00;0.00;;;;;14.70;100255.00;;;;5104837;28;20134;-77
2022/03/17 08:20:30;;;;;;;0.00;0.00;;;;;14.70;100273.00;;;;5107072;28;20491;-77
2022/03/17 08:23:00;;;;;;;0.00;0.00;;;;;14.60;100263.00;;;;5106404;28;20494;-76
2022/03/17 08:25:29;;;;;;;0.00;0.00;;;;;14.60;100262.00;;;;5108553;28;20127;-77
2022/03/17 08:28:02;;;;;;;0.00;0.00;;;;;14.60;100262.00;;;;5126162;27;20453;-78
2022/03/17 08:30:38;;;;;;;0.00;0.00;;;;;14.70;100259.00;;;;5109975;28;20044;-78
2022/03/17 08:33:08;;;;;;;0.00;0.00;;;;;14.60;100277.00;;;;5125827;27;20383;-77
2022/03/17 08:35:42;;;;;;;0.00;0.00;;;;;14.50;100272.00;;;;5107689;27;20104;-77
2022/03/17 08:38:12;;;;;;;0.00;0.00;;;;;14.50;100260.00;;;;5106676;28;20055;-76
2022/03/17 08:40:43;;;;;;;0.00;0.00;;;;;14.50;100267.00;;;;5105195;27;20043;-77
2022/03/17 08:43:13;;;;;;;0.00;0.00;;;;;14.50;100270.00;;;;5123440;27;20043;-77
2022/03/17 08:51:23;;;;;;;0.00;0.00;;;;;14.50;100266.00;;;;5081186;28;20059;-77
2022/03/17 08:53:53;;;;;;;0.00;0.00;;;;;14.50;100259.00;;;;5109639;28;20051;-77
2022/03/17 08:56:22;;;;;;;0.00;0.00;;;;;14.60;100282.00;;;;5109531;27;20047;-77
2022/03/17 08:58:52;;;;;;;0.00;0.00;;;;;14.60;100259.00;;;;5108158;28;20051;-76
2022/03/17 09:01:21;;;;;;;0.00;0.00;;;;;14.70;100279.00;;;;5125483;27;20074;-77
2022/03/17 09:03:52;;;;;;;0.00;0.00;;;;;14.70;100272.00;;;;5108924;28;20163;-77
2022/03/17 09:06:22;;;;;;;0.00;0.00;;;;;14.70;100282.00;;;;5108628;27;20132;-77
2022/03/17 09:08:52;;;;;;;0.00;0.00;;;;;14.70;100254.00;;;;5125383;27;20054;-77
2022/03/17 09:11:21;;;;;;;0.00;0.00;;;;;14.70;100275.00;;;;5109475;28;20101;-77
2022/03/17 09:13:50;;;;;;;0.00;0.00;;;;;14.80;100279.00;;;;5109859;28;20053;-77
2022/03/17 09:16:20;;;;;;;0.00;0.00;;;;;14.90;100288.00;;;;5109567;28;20151;-77
2022/03/17 09:18:49;;;;;;;0.00;0.00;;;;;14.90;100282.00;;;;5109696;28;20115;-77
2022/03/17 09:21:19;;;;;;;0.00;0.00;;;;;15.00;100280.00;;;;5091467;28;20057;-77
2022/03/17 09:23:48;;;;;;;0.00;0.00;;;;;15.00;100282.00;;;;5109353;28;20047;-77
2022/03/17 09:26:19;;;;;;;0.00;0.00;;;;;15.00;100276.00;;;;5109483;28;20054;-77
2022/03/17 09:28:50;;;;;;;0.00;0.00;;;;;15.00;100280.00;;;;5109121;28;20051;-77
2022/03/17 09:31:20;;;;;;;0.00;0.00;;;;;15.00;100290.00;;;;5109481;28;20036;-77
2022/03/17 09:33:50;;;;;;;0.00;0.00;;;;;15.00;100293.00;;;;5124670;27;20073;-77
2022/03/17 09:36:20;;;;;;;0.00;0.00;;;;;15.10;100314.00;;;;5108871;28;20088;-77
2022/03/17 09:41:38;;;;;;;0.00;0.00;;;;;15.10;100306.00;;;;5109582;28;20456;-76
2022/03/17 09:44:08;;;;;;;0.00;0.00;;;;;15.10;100316.00;;;;5107405;28;20047;-77
2022/03/17 09:46:47;;;;;;;0.00;0.00;;;;;15.10;100305.00;;;;5108091;28;20074;-77
2022/03/17 09:49:18;;;;;;;0.00;0.00;;;;;15.20;100309.00;;;;5109298;28;20039;-77
2022/03/17 09:51:49;;;;;;;0.00;0.00;;;;;15.30;100298.00;;;;5107562;28;20057;-77
2022/03/17 09:54:19;;;;;;;0.00;0.00;;;;;15.30;100333.00;;;;5106882;28;20052;-77
2022/03/17 09:56:48;;;;;;;0.00;0.00;;;;;15.30;100317.00;;;;5108164;28;20047;-77
2022/03/17 09:59:18;;;;;;;0.00;0.00;;;;;15.40;100351.00;;;;5124651;27;20058;-77
2022/03/17 10:01:48;;;;;;;0.00;0.00;;;;;15.40;100332.00;;;;5124836;27;20048;-78
2022/03/17 10:04:19;;;;;;;0.00;0.00;;;;;15.40;100340.00;;;;5108521;28;20152;-78
2022/03/17 10:06:50;;;;;;;0.00;0.00;;;;;15.50;100336.00;;;;5124513;27;20058;-77
2022/03/17 10:09:21;;;;;;;0.00;0.00;;;;;15.50;100337.00;;;;5108360;28;20651;-77
2022/03/17 10:12:11;;;;;;;0.00;0.00;;;;;15.60;100350.00;;;;5107567;28;20044;-77
2022/03/17 10:14:46;;;;;;;0.00;0.00;;;;;15.80;100335.00;;;;5090333;28;20062;-78
2022/03/17 10:17:28;;;;;;;0.00;0.00;;;;;15.90;100352.00;;;;5123820;27;20066;-77
2022/03/17 10:20:19;;;;;;;0.00;0.00;;;;;16.00;100339.00;;;;5108105;28;20122;-77
2022/03/17 10:22:50;;;;;;;0.00;0.00;;;;;16.00;100354.00;;;;5107837;28;20506;-77
2022/03/17 10:25:25;;;;;;;0.10;0.10;;;;;16.20;100345.00;;;;5122927;27;20055;-78
2022/03/17 10:27:55;;;;;;;0.00;0.00;;;;;16.30;100339.00;;;;5123878;27;20564;-79
2022/03/17 10:30:33;;;;;;;0.00;0.00;;;;;16.70;100335.00;;;;5123813;27;20054;-79
2022/03/17 10:33:29;;;;;;;0.00;0.00;;;;;17.00;100370.00;;;;5105116;28;20643;-78
2022/03/17 10:36:15;;;;;;;0.00;0.00;;;;;17.20;100364.00;;;;5104101;28;20116;-79
2022/03/17 10:38:46;;;;;;;0.00;0.00;;;;;17.50;100359.00;;;;5107597;28;20418;-78
2022/03/17 10:41:16;;;;;;;0.00;0.00;;;;;17.90;100343.00;;;;5106377;28;20051;-77
2022/03/17 10:43:45;;;;;;;0.00;0.00;;;;;18.00;100352.00;;;;5107570;28;20043;-77
2022/03/17 10:46:19;;;;;;;0.00;0.00;;;;;18.00;100364.00;;;;5106146;28;20035;-78
2022/03/17 10:48:57;;;;;;;0.00;0.00;;;;;18.10;100353.00;;;;5106303;28;20078;-77
2022/03/17 10:51:41;;;;;;;0.00;0.00;;;;;18.30;100336.00;;;;5107062;28;20050;-77
2022/03/17 10:54:20;;;;;;;0.00;0.00;;;;;18.50;100359.00;;;;5123511;27;20128;-76
2022/03/17 10:57:11;;;;;;;0.00;0.00;;;;;18.80;100355.00;;;;5107898;28;20035;-79
2022/03/17 10:59:43;;;;;;;0.00;0.00;;;;;19.10;100365.00;;;;5107351;28;20047;-76
2022/03/17 11:02:21;;;;;;;0.00;0.00;;;;;19.60;100315.00;;;;5107680;28;20036;-76
2022/03/17 11:04:51;;;;;;;0.00;0.00;;;;;20.50;100323.00;;;;5122642;27;20109;-76
2022/03/17 11:07:21;;;;;;;0.00;0.00;;;;;23.50;100229.00;;;;5107614;28;20047;-76
2022/03/17 11:09:51;;;;;;;0.00;0.00;;;;;26.20;100209.00;;;;5107097;28;20094;-80
2022/03/17 11:12:20;;;;;;;0.00;0.00;;;;;27.30;100201.00;;;;5106623;28;20044;-80
2022/03/17 11:14:53;;;;;;;0.00;0.00;;;;;24.20;100276.00;;;;5107110;28;20039;-77
2022/03/17 11:17:32;;;;;;;0.00;0.00;;;;;22.30;100305.00;;;;5106354;28;20127;-77
2022/03/17 11:20:11;;;;;;;0.00;0.00;;;;;22.00;100333.00;;;;5105436;28;20118;-79
2022/03/17 11:22:40;;;;;;;0.00;0.00;;;;;21.90;100324.00;;;;5107086;28;20040;-80
2022/03/17 11:25:24;;;;;;;0.00;0.00;;;;;25.40;100223.00;;;;5122325;27;20044;-77
2022/03/17 11:27:59;;;;;;;0.00;0.00;;;;;30.00;100201.00;;;;5104885;28;20044;-78
2022/03/17 11:30:44;;;;;;;0.00;0.00;;;;;31.50;100200.00;;;;5106724;28;20499;-77
2022/03/17 11:33:27;;;;;;;0.00;0.00;;;;;30.90;100241.00;;;;5105789;27;20055;-77
2022/03/17 11:36:21;;;;;;;0.10;0.10;;;;;31.00;100227.00;;;;5120835;27;20047;-76
2022/03/17 11:39:24;;;;;;;0.00;0.00;;;;;31.10;100205.00;;;;5122229;28;20161;-79
2022/03/17 11:41:48;;;;;;;0.00;0.00;;;;;30.90;100224.00;;;;5104193;28;20055;-76
2022/03/17 11:44:32;;;;;;;0.00;0.00;;;;;31.50;100235.00;;;;5106087;28;20043;-76
2022/03/17 11:47:10;;;;;;;0.00;0.00;;;;;32.50;100208.00;;;;5105784;28;20040;-76
2022/03/17 11:49:46;;;;;;;0.00;0.00;;;;;32.90;100207.00;;;;5106314;28;20127;-78
2022/03/17 11:52:17;;;;;;;0.00;0.00;;;;;32.90;100201.00;;;;5105119;28;20047;-78
2022/03/17 11:54:46;;;;;;;0.00;0.00;;;;;33.30;100223.00;;;;5120872;28;20039;-78
2022/03/17 11:57:15;;;;;;;0.00;0.00;;;;;33.50;100220.00;;;;5104571;28;20090;-76
2022/03/17 11:59:52;;;;;;;0.00;0.00;;;;;33.70;100237.00;;;;5105594;28;20039;-77
2022/03/17 12:02:29;;;;;;;0.00;0.00;;;;;32.80;100244.00;;;;5110590;28;20510;-77
2022/03/17 12:05:12;;;;;;;0.00;0.00;;;;;33.50;100227.00;;;;5091734;28;20055;-76
2022/03/17 12:07:48;;;;;;;0.00;0.00;;;;;33.60;100239.00;;;;5109010;27;20047;-78
2022/03/17 12:11:07;;;;;;;0.00;0.00;;;;;33.70;100241.00;;;;5126141;27;20518;-76
2022/03/17 12:13:37;;;;;;;0.00;0.00;;;;;33.90;100244.00;;;;5087254;28;20056;-77
2022/03/17 12:16:07;;;;;;;0.00;0.00;;;;;34.10;100242.00;;;;5122528;27;20043;-78
2022/03/17 12:19:01;;;;;;;0.00;0.00;;;;;33.90;100248.00;;;;5125567;27;20039;-77
2022/03/17 12:22:04;;;;;;;0.00;0.00;;;;;33.90;100248.00;;;;5109876;28;20417;-77
2022/03/17 12:24:40;;;;;;;0.00;0.00;;;;;34.30;100253.00;;;;5091471;28;20074;-78
2022/03/17 12:27:26;;;;;;;0.00;0.00;;;;;34.60;100268.00;;;;5108573;28;20680;-77
2022/03/17 12:30:03;;;;;;;0.00;0.00;;;;;33.90;100269.00;;;;5108179;28;20063;-77
2022/03/17 12:32:37;;;;;;;0.00;0.00;;;;;33.80;100274.00;;;;5110102;28;20043;-77
2022/03/17 12:35:12;;;;;;;0.00;0.00;;;;;33.80;100255.00;;;;5109907;28;20115;-78
2022/03/17 12:37:43;;;;;;;0.00;0.00;;;;;33.70;100262.00;;;;5108600;28;20047;-78
2022/03/17 12:40:20;;;;;;;0.00;0.00;;;;;33.30;100258.00;;;;5107462;27;20040;-77
2022/03/17 12:42:53;;;;;;;0.00;0.00;;;;;33.20;100248.00;;;;5109418;28;20050;-76
2022/03/17 12:45:25;;;;;;;0.00;0.00;;;;;32.80;100251.00;;;;5108367;28;20051;-77
2022/03/17 12:47:58;;;;;;;0.13;0.13;;;;;32.60;100260.00;;;;5124853;27;20043;-76